»·PEaware :: SCARE21 KEND-KEND

SCARE21 :: KEND-KEND

FLIGHT INFORMATION

Flight Status: Arrived
Operator: Unknown
More flights by this operator :: More flights under this callsign
Pilot: Eris W. (22289)
Aircraft: BEECH AIRCRAFT T-6A TEXAN
(TEX2)
More flights by this aircraft type
Origin: KEND Vance AFB
United States
Destination: KEND Vance AFB
United States
More flights between these airports :: More routes between these airports
Route: null
File this flight plan on PilotEdge
Remarks:
Altitude:
(Current/Filed)
null
Speed:
(Current/Filed)
0kts
Departed: 23-Feb-21 09:13 AM
Arrived: 23-Feb-21 10:03 AM
Distance/Time
Traveled:
1nm/0:50
Distance/Time
To Go:
Arrived

Flight Plot

Page will automatically refresh every two minutes.

Flight plan parsing failed; only flown route is shown


Map Options




Map Legend


Flown Route
Filed Route
Departure Airport
Arrival Airport
Navaid (VOR, NDB)
Fix

Horizontal Profiles

Position Reports

Time Latitude Longitude Heading Altitude Ground
Speed
23-Feb-21 08:59 36.346970 -97.909981 219 1279ft 0kts
23-Feb-21 09:01 36.346970 -97.909981 219 1279ft 0kts
23-Feb-21 09:02 36.346719 -97.910127 214 1279ft 0kts
23-Feb-21 09:03 36.346949 -97.910002 221 1279ft 0kts
23-Feb-21 09:04 36.346946 -97.910005 221 1279ft 0kts
23-Feb-21 09:05 36.346946 -97.910005 221 1279ft 0kts
23-Feb-21 09:06 36.346946 -97.910005 221 1279ft 0kts
23-Feb-21 09:07 36.346946 -97.910005 221 1279ft 0kts
23-Feb-21 09:08 36.346946 -97.910005 221 1279ft 0kts
23-Feb-21 09:09 36.333557 -97.910111 277 1291ft 0kts
23-Feb-21 09:10 36.333557 -97.910111 277 1291ft 0kts
23-Feb-21 09:11 36.333557 -97.910111 277 1291ft 0kts
23-Feb-21 09:11 36.333561 -97.910283 263 1291ft 5kts
23-Feb-21 09:13 36.363044 -97.910293 359 1552ft 206kts
23-Feb-21 09:14 36.413213 -97.904999 1 5061ft 195kts
23-Feb-21 09:15 36.478369 -97.900169 352 5063ft 251kts
23-Feb-21 09:16 36.536475 -97.889711 8 8807ft 189kts
23-Feb-21 09:16 36.589804 -97.887471 5 4955ft 261kts
23-Feb-21 09:17 36.649045 -97.883434 359 4954ft 213kts
23-Feb-21 09:18 36.710505 -97.887789 330 2919ft 223kts
23-Feb-21 09:20 36.723325 -97.914711 306 2956ft 187kts
23-Feb-21 09:20 36.723325 -97.914711 306 2956ft 187kts
23-Feb-21 09:21 36.723325 -97.914711 306 2956ft 187kts
23-Feb-21 09:22 36.738732 -97.959813 269 2332ft 214kts
23-Feb-21 09:23 36.740607 -98.034001 269 2316ft 213kts
23-Feb-21 09:24 36.788073 -98.072902 359 2287ft 227kts
23-Feb-21 09:25 36.806447 -98.120279 187 2418ft 185kts
23-Feb-21 09:26 36.750930 -98.122874 185 2270ft 208kts
23-Feb-21 09:27 36.764773 -98.111093 342 2349ft 138kts
23-Feb-21 09:28 36.748083 -98.123063 182 1258ft 97kts
23-Feb-21 09:29 36.736393 -98.123615 182 1200ft 90kts
23-Feb-21 09:30 36.738264 -98.110455 1 2166ft 160kts
23-Feb-21 09:31 36.752660 -98.122609 187 1443ft 110kts
23-Feb-21 09:32 36.724021 -98.124416 182 1737ft 158kts
23-Feb-21 09:33 36.756051 -98.109080 359 2214ft 133kts
23-Feb-21 09:34 36.751421 -98.122920 182 1334ft 96kts
23-Feb-21 09:35 36.721759 -98.122534 137 2096ft 161kts
23-Feb-21 09:36 36.756157 -98.107659 0 2259ft 126kts
23-Feb-21 09:37 36.751738 -98.122801 183 1372ft 95kts
23-Feb-21 09:38 36.737168 -98.123512 179 1200ft 40kts
23-Feb-21 09:39 36.708344 -98.109291 88 1630ft 221kts
23-Feb-21 09:40 36.752133 -98.092097 340 4885ft 151kts
23-Feb-21 09:41 36.744961 -98.122019 192 4215ft 132kts
23-Feb-21 09:42 36.753094 -98.127344 106 2176ft 146kts
23-Feb-21 09:43 36.724473 -98.124174 179 1540ft 140kts
23-Feb-21 09:44 36.703626 -98.075647 84 1640ft 246kts
23-Feb-21 09:45 36.753919 -98.070851 354 4325ft 170kts
23-Feb-21 09:46 36.760412 -98.114804 230 4139ft 151kts
23-Feb-21 09:47 36.732784 -98.130846 309 3186ft 113kts
23-Feb-21 09:48 36.746352 -98.123000 184 1209ft 85kts
23-Feb-21 09:49 36.712254 -98.122513 130 1785ft 192kts
23-Feb-21 09:50 36.717335 -98.055530 82 5049ft 183kts
23-Feb-21 09:51 36.714604 -97.987657 107 5450ft 201kts
23-Feb-21 09:52 36.708679 -97.918155 86 5546ft 208kts
23-Feb-21 09:53 36.713977 -97.839003 95 6420ft 234kts
23-Feb-21 09:54 36.652615 -97.807409 181 5419ft 263kts
23-Feb-21 09:55 36.583217 -97.804340 182 4222ft 246kts
23-Feb-21 09:56 36.522032 -97.824160 207 2742ft 205kts
23-Feb-21 09:57 36.488162 -97.871228 236 2310ft 183kts
23-Feb-21 09:58 36.446296 -97.904654 188 2279ft 172kts
23-Feb-21 09:59 36.404109 -97.908166 184 1892ft 140kts
23-Feb-21 10:00 36.373408 -97.910432 182 1750ft 104kts
23-Feb-21 10:01 36.345216 -97.910958 181 1284ft 85kts
23-Feb-21 10:02 36.333607 -97.910401 53 1291ft 13kts
23-Feb-21 10:03 36.336919 -97.909237 353 1292ft 17kts
23-Feb-21 10:04 36.346767 -97.909967 266 1279ft 0kts
23-Feb-21 10:05 36.346767 -97.910163 269 1279ft 0kts
23-Feb-21 10:06 36.346767 -97.910163 269 1279ft 0kts
23-Feb-21 10:07 36.346765 -97.910707 263 1279ft 6kts
23-Feb-21 10:08 36.323873 -97.910670 166 1905ft 173kts
23-Feb-21 10:09 36.356962 -97.896434 339 1915ft 120kts

Navigation Log

Ident Type
Flight plan parsing failed, navigation log unavailable